createdAt,value
2018-01-18T00:00:48.833Z,0.50
2018-01-18T00:03:17.448Z,0.60
2018-01-18T00:05:45.825Z,0.50
2018-01-18T00:08:14.745Z,0.60
2018-01-18T00:10:43.160Z,0.60
2018-01-18T00:13:11.733Z,0.70
2018-01-18T00:15:39.922Z,0.80
2018-01-18T00:18:09.308Z,0.80
2018-01-18T00:20:37.969Z,0.80
2018-01-18T00:23:06.620Z,0.70
2018-01-18T00:25:34.989Z,0.60
2018-01-18T00:28:03.424Z,0.50
2018-01-18T00:30:31.796Z,0.40
2018-01-18T00:33:00.428Z,0.50
2018-01-18T00:35:28.805Z,0.40
2018-01-18T00:37:57.368Z,0.40
2018-01-18T00:40:26.018Z,0.40
2018-01-18T00:42:54.660Z,0.40
2018-01-18T00:45:23.153Z,0.40
2018-01-18T00:47:52.324Z,0.40
2018-01-18T00:50:20.982Z,0.40
2018-01-18T00:52:49.617Z,0.40
2018-01-18T00:55:19.018Z,0.40
2018-01-18T00:57:47.663Z,0.30
2018-01-18T01:00:15.903Z,0.40
2018-01-18T01:02:45.033Z,0.40
2018-01-18T01:05:13.601Z,0.40
2018-01-18T01:07:41.961Z,0.40
2018-01-18T01:10:10.593Z,0.40
2018-01-18T01:12:38.981Z,0.50
2018-01-18T01:15:07.357Z,0.50
2018-01-18T01:17:35.940Z,0.50
2018-01-18T01:20:03.989Z,0.60
2018-01-18T01:22:33.393Z,0.60
2018-01-18T01:25:01.772Z,0.60
2018-01-18T01:27:30.140Z,0.70
2018-01-18T01:29:58.678Z,0.70
2018-01-18T01:32:27.284Z,0.70
2018-01-18T01:34:55.658Z,0.70
2018-01-18T01:37:24.739Z,0.70
2018-01-18T01:39:53.372Z,0.80
2018-01-18T01:42:22.784Z,0.80
2018-01-18T01:44:51.420Z,0.80
2018-01-18T01:47:21.228Z,0.90
2018-01-18T01:49:49.734Z,0.80
2018-01-18T01:52:19.134Z,0.90
2018-01-18T01:54:47.742Z,0.90
2018-01-18T01:57:16.148Z,0.90
2018-01-18T01:59:44.767Z,0.90
2018-01-18T02:02:13.397Z,0.90
2018-01-18T02:04:41.773Z,0.90
2018-01-18T02:07:10.369Z,0.90
2018-01-18T02:09:39.023Z,0.90
2018-01-18T02:12:07.407Z,0.90
2018-01-18T02:14:35.861Z,0.90
2018-01-18T02:17:03.900Z,0.90
2018-01-18T02:19:32.559Z,0.90
2018-01-18T02:22:01.098Z,0.90
2018-01-18T02:24:29.659Z,1.00
2018-01-18T02:26:58.804Z,0.90
2018-01-18T02:29:27.172Z,0.90
2018-01-18T02:31:55.907Z,1.00
2018-01-18T02:34:24.561Z,1.00
2018-01-18T02:36:53.202Z,1.00
2018-01-18T02:39:21.699Z,1.00
2018-01-18T02:41:51.100Z,1.10
2018-01-18T02:44:20.496Z,1.10
2018-01-18T02:46:48.852Z,1.10
2018-01-18T02:49:17.264Z,1.00
2018-01-18T02:51:45.624Z,1.10
2018-01-18T02:54:14.016Z,1.10
2018-01-18T02:56:42.688Z,1.10
2018-01-18T02:59:11.758Z,1.20
2018-01-18T03:01:40.397Z,1.20
2018-01-18T03:04:08.771Z,1.10
2018-01-18T03:06:37.265Z,1.10
2018-01-18T03:09:06.728Z,1.10
2018-01-18T03:11:35.321Z,1.00
2018-01-18T03:14:04.393Z,1.00
2018-01-18T03:16:33.609Z,1.00
2018-01-18T03:19:03.025Z,1.00
2018-01-18T03:21:31.731Z,1.00
2018-01-18T03:24:01.522Z,0.90
2018-01-18T03:26:29.891Z,0.90
2018-01-18T03:28:59.285Z,1.10
2018-01-18T03:31:28.698Z,1.10
2018-01-18T03:33:57.277Z,1.10
2018-01-18T03:36:25.637Z,1.10
2018-01-18T03:38:54.013Z,1.10
2018-01-18T03:41:22.595Z,1.10
2018-01-18T03:43:51.224Z,1.20
2018-01-18T03:46:19.768Z,1.30
2018-01-18T03:48:49.176Z,1.30
2018-01-18T03:51:18.575Z,1.30
2018-01-18T03:53:47.213Z,1.30
2018-01-18T03:56:16.370Z,1.30
2018-01-18T03:58:45.031Z,1.30
2018-01-18T04:01:13.402Z,1.40
2018-01-18T04:03:41.981Z,1.40
2018-01-18T04:06:10.620Z,1.40
2018-01-18T04:08:38.811Z,1.30
2018-01-18T04:11:07.436Z,1.30
2018-01-18T04:13:36.738Z,1.30
2018-01-18T04:16:06.136Z,1.40
2018-01-18T04:18:34.316Z,1.40
2018-01-18T04:21:03.004Z,1.40
2018-01-18T04:23:31.818Z,1.40
2018-01-18T04:26:00.460Z,1.50
2018-01-18T04:28:28.834Z,1.50
2018-01-18T04:30:57.207Z,1.50
2018-01-18T04:33:25.637Z,1.50
2018-01-18T04:35:54.276Z,1.50
2018-01-18T04:38:22.917Z,1.50
2018-01-18T04:40:51.553Z,1.60
2018-01-18T04:43:19.916Z,1.60
2018-01-18T04:45:48.596Z,1.60
2018-01-18T04:48:17.001Z,1.60
2018-01-18T04:50:45.896Z,1.70
2018-01-18T04:53:15.587Z,1.70
2018-01-18T04:55:44.136Z,1.70
2018-01-18T04:58:12.856Z,1.70
2018-01-18T05:00:41.224Z,1.70
2018-01-18T05:03:09.508Z,1.70
2018-01-18T05:05:37.872Z,1.70
2018-01-18T05:08:06.504Z,1.80
2018-01-18T05:10:35.176Z,1.80
2018-01-18T05:13:04.568Z,1.80
2018-01-18T05:15:32.935Z,1.80
2018-01-18T05:18:01.306Z,1.80
2018-01-18T05:20:29.663Z,1.80
2018-01-18T05:22:58.791Z,1.90
2018-01-18T05:25:27.393Z,1.90
2018-01-18T05:27:55.757Z,1.90
2018-01-18T05:30:25.151Z,1.90
2018-01-18T05:32:53.534Z,1.90
2018-01-18T05:35:22.205Z,1.90
2018-01-18T05:37:50.849Z,1.90
2018-01-18T05:40:20.014Z,1.80
2018-01-18T05:42:49.241Z,1.70
2018-01-18T05:45:17.889Z,1.70
2018-01-18T05:47:47.302Z,1.70
2018-01-18T05:50:15.673Z,1.70
2018-01-18T05:52:45.151Z,1.70
2018-01-18T05:55:13.529Z,1.70
2018-01-18T05:57:41.717Z,1.60
2018-01-18T06:00:10.181Z,1.60
2018-01-18T06:02:39.689Z,1.60
2018-01-18T06:05:08.057Z,1.70
2018-01-18T06:07:36.496Z,1.60
2018-01-18T06:10:05.138Z,1.60
2018-01-18T06:12:33.502Z,1.60
2018-01-18T06:15:02.087Z,1.60
2018-01-18T06:17:30.606Z,1.60
2018-01-18T06:19:58.964Z,1.60
2018-01-18T06:22:27.332Z,1.70
2018-01-18T06:24:55.702Z,1.60
2018-01-18T06:27:24.074Z,1.70
2018-01-18T06:29:53.285Z,1.70
2018-01-18T06:32:22.694Z,1.80
2018-01-18T06:34:51.986Z,1.80
2018-01-18T06:37:20.355Z,1.80
2018-01-18T06:39:48.725Z,1.80
2018-01-18T06:42:17.090Z,1.80
2018-01-18T06:44:46.237Z,1.90
2018-01-18T06:47:14.555Z,1.90
2018-01-18T06:49:43.137Z,1.90
2018-01-18T06:52:12.074Z,1.90
2018-01-18T06:54:40.464Z,1.90
2018-01-18T06:57:08.825Z,1.90
2018-01-18T06:59:38.225Z,2.00
2018-01-18T07:02:06.797Z,1.90
2018-01-18T07:04:36.101Z,1.90
2018-01-18T07:07:05.521Z,1.90
2018-01-18T07:09:34.168Z,1.80
2018-01-18T07:12:02.810Z,1.90
2018-01-18T07:14:31.378Z,2.00
2018-01-18T07:17:00.556Z,2.20
2018-01-18T07:19:29.112Z,2.10
2018-01-18T07:21:57.747Z,2.20
2018-01-18T07:24:26.124Z,2.20
2018-01-18T07:26:54.492Z,2.30
2018-01-18T07:29:22.872Z,2.30
2018-01-18T07:31:51.522Z,2.40
2018-01-18T07:34:20.003Z,2.40
2018-01-18T07:36:48.372Z,2.50
2018-01-18T07:39:16.520Z,2.50
2018-01-18T07:41:45.657Z,2.70
2018-01-18T07:44:15.046Z,2.70
2018-01-18T07:46:43.594Z,2.70
2018-01-18T07:49:12.737Z,2.70
2018-01-18T07:51:42.146Z,2.80
2018-01-18T07:54:10.616Z,2.80
2018-01-18T07:56:38.988Z,2.90
2018-01-18T07:59:08.183Z,3.00
2018-01-18T08:01:36.713Z,2.90
2018-01-18T08:04:11.436Z,3.00
2018-01-18T08:06:39.930Z,3.10
2018-01-18T08:09:09.090Z,3.20
2018-01-18T08:11:38.225Z,3.20
2018-01-18T08:14:06.949Z,3.30
2018-01-18T08:16:36.368Z,3.40
2018-01-18T08:19:05.770Z,3.50
2018-01-18T08:21:34.370Z,3.50
2018-01-18T08:24:03.008Z,3.60
2018-01-18T08:26:31.646Z,3.60
2018-01-18T08:29:00.030Z,3.70
2018-01-18T08:31:28.405Z,3.70
2018-01-18T08:33:57.085Z,3.60
2018-01-18T08:36:27.254Z,3.60
2018-01-18T08:38:55.621Z,3.60
2018-01-18T08:41:24.261Z,3.50
2018-01-18T08:43:52.909Z,3.50
2018-01-18T08:46:23.349Z,3.40
2018-01-18T08:48:52.737Z,3.30
2018-01-18T08:51:22.106Z,3.30
2018-01-18T08:53:53.010Z,3.40
2018-01-18T08:56:21.401Z,3.40
2018-01-18T08:58:50.079Z,3.40
2018-01-18T09:01:18.454Z,3.40
2018-01-18T09:03:46.690Z,3.50
2018-01-18T09:06:16.101Z,3.60
2018-01-18T09:08:45.502Z,3.80
2018-01-18T09:11:14.153Z,3.80
2018-01-18T09:13:43.301Z,4.00
2018-01-18T09:16:11.661Z,4.00
2018-01-18T09:18:40.353Z,4.10
2018-01-18T09:21:09.761Z,4.30
2018-01-18T09:23:38.039Z,4.30
2018-01-18T09:26:07.209Z,4.40
2018-01-18T09:28:35.855Z,4.50
2018-01-18T09:31:04.241Z,4.50
2018-01-18T09:33:33.385Z,4.70
2018-01-18T09:36:02.201Z,4.70
2018-01-18T09:38:30.577Z,4.80
2018-01-18T09:40:58.940Z,4.80
2018-01-18T09:43:27.518Z,4.90
2018-01-18T09:45:55.892Z,5.00
2018-01-18T09:48:25.296Z,5.20
2018-01-18T09:50:53.671Z,5.20
2018-01-18T09:53:22.042Z,5.20
2018-01-18T09:55:51.432Z,5.40
2018-01-18T09:58:20.150Z,5.40
2018-01-18T10:00:49.308Z,5.50
2018-01-18T10:03:17.995Z,5.50
2018-01-18T10:05:47.260Z,5.70
2018-01-18T10:08:16.603Z,5.70
2018-01-18T10:10:45.240Z,5.70
2018-01-18T10:13:13.618Z,5.70
2018-01-18T10:15:42.241Z,5.80
2018-01-18T10:18:10.869Z,5.80
2018-01-18T10:20:39.585Z,5.90
2018-01-18T10:23:09.028Z,6.00
2018-01-18T10:25:38.462Z,6.10
2018-01-18T10:28:06.838Z,6.10
2018-01-18T10:30:35.481Z,6.10
2018-01-18T10:33:04.545Z,6.30
2018-01-18T10:35:32.845Z,6.30
2018-01-18T10:38:01.027Z,6.50
2018-01-18T10:40:29.399Z,6.60
2018-01-18T10:42:57.857Z,6.80
2018-01-18T10:45:26.984Z,7.00
2018-01-18T10:47:55.353Z,7.00
2018-01-18T10:50:23.732Z,6.90
2018-01-18T10:52:53.140Z,7.10
2018-01-18T10:55:21.825Z,7.10
2018-01-18T10:57:49.985Z,7.30
2018-01-18T11:00:18.380Z,7.30
2018-01-18T11:02:47.776Z,7.30
2018-01-18T11:05:16.346Z,7.30
2018-01-18T11:07:44.728Z,7.30
2018-01-18T11:10:13.322Z,7.20
2018-01-18T11:12:41.782Z,7.20
2018-01-18T11:15:10.386Z,7.20
2018-01-18T11:17:38.954Z,7.20
2018-01-18T11:20:07.329Z,7.30
2018-01-18T11:22:35.953Z,7.40
2018-01-18T11:25:04.330Z,7.40
2018-01-18T11:27:32.777Z,7.40
2018-01-18T11:30:01.149Z,7.40
2018-01-18T11:32:29.577Z,7.40
2018-01-18T11:34:58.713Z,7.40
2018-01-18T11:37:27.125Z,7.40
2018-01-18T11:39:56.527Z,7.40
2018-01-18T11:42:24.985Z,7.40
2018-01-18T11:44:53.624Z,7.40
2018-01-18T11:47:22.881Z,7.40
2018-01-18T11:49:52.301Z,7.40
2018-01-18T11:52:20.869Z,7.40
2018-01-18T11:54:49.247Z,7.40
2018-01-18T11:57:17.712Z,7.40
2018-01-18T11:59:46.284Z,7.50
2018-01-18T12:02:14.763Z,7.50
2018-01-18T12:04:43.412Z,7.50
2018-01-18T12:07:12.650Z,7.60
2018-01-18T12:09:41.322Z,7.50
2018-01-18T12:12:09.818Z,7.50
2018-01-18T12:14:38.378Z,7.60
2018-01-18T12:17:07.518Z,7.70
2018-01-18T12:19:35.899Z,7.70
2018-01-18T12:22:04.534Z,7.70
2018-01-18T12:24:33.069Z,7.70
2018-01-18T12:27:01.722Z,7.90
2018-01-18T12:29:30.091Z,7.90
2018-01-18T12:31:58.601Z,7.90
2018-01-18T12:34:27.149Z,8.00
2018-01-18T12:36:55.769Z,8.00
2018-01-18T12:39:24.407Z,8.10
2018-01-18T12:41:55.005Z,8.10
2018-01-18T12:44:23.641Z,8.10
2018-01-18T12:46:53.248Z,8.10
2018-01-18T12:49:21.729Z,8.00
2018-01-18T12:51:50.097Z,7.90
2018-01-18T12:54:18.725Z,7.90
2018-01-18T12:56:48.117Z,8.00
2018-01-18T12:59:17.005Z,8.00
2018-01-18T13:01:45.449Z,8.00
2018-01-18T13:04:14.089Z,7.90
2018-01-18T13:06:43.045Z,7.90
2018-01-18T13:09:11.471Z,8.00
2018-01-18T13:11:40.465Z,8.00
2018-01-18T13:14:08.824Z,7.90
2018-01-18T13:16:36.538Z,8.00
2018-01-18T13:19:04.958Z,8.00
2018-01-18T13:21:33.600Z,8.10
2018-01-18T13:24:03.024Z,8.00
2018-01-18T13:26:31.586Z,8.10
2018-01-18T13:29:00.231Z,8.00
2018-01-18T13:31:29.360Z,8.00
2018-01-18T13:33:57.771Z,8.00
2018-01-18T13:36:26.134Z,8.10
2018-01-18T13:38:54.522Z,8.00
2018-01-18T13:41:22.897Z,7.90
2018-01-18T13:43:52.296Z,7.90
2018-01-18T13:46:20.853Z,7.90
2018-01-18T13:48:49.505Z,7.90
2018-01-18T13:51:17.875Z,7.90
2018-01-18T13:53:46.257Z,7.90
2018-01-18T13:56:14.905Z,7.90
2018-01-18T13:58:44.305Z,7.90
2018-01-18T14:01:12.833Z,7.90
2018-01-18T14:03:41.222Z,7.90
2018-01-18T14:06:10.143Z,7.90
2018-01-18T14:08:38.512Z,7.90
2018-01-18T14:11:06.907Z,7.90
2018-01-18T14:13:36.310Z,8.00
2018-01-18T14:16:04.878Z,8.00
2018-01-18T14:18:34.322Z,8.20
2018-01-18T14:21:02.983Z,8.20
2018-01-18T14:23:32.382Z,8.10
2018-01-18T14:26:01.176Z,8.10
2018-01-18T14:28:30.568Z,8.30
2018-01-18T14:30:59.964Z,8.30
2018-01-18T14:33:28.560Z,8.30
2018-01-18T14:35:57.188Z,8.20
2018-01-18T14:38:25.830Z,8.20
2018-01-18T14:40:54.426Z,8.30
2018-01-18T14:43:23.104Z,8.30
2018-01-18T14:45:51.733Z,8.40
2018-01-18T14:48:20.884Z,8.50
2018-01-18T14:50:50.744Z,8.50
2018-01-18T14:53:19.362Z,8.50
2018-01-18T14:55:47.921Z,8.40
2018-01-18T14:58:16.313Z,8.40
2018-01-18T15:00:44.741Z,8.40
2018-01-18T15:03:13.211Z,8.40
2018-01-18T15:05:41.781Z,8.40
2018-01-18T15:08:10.461Z,8.40
2018-01-18T15:10:40.517Z,8.50
2018-01-18T15:13:08.893Z,8.50
2018-01-18T15:15:37.607Z,8.50
2018-01-18T15:18:06.005Z,8.50
2018-01-18T15:20:34.369Z,8.50
2018-01-18T15:23:02.755Z,8.50
2018-01-18T15:25:32.053Z,8.40
2018-01-18T15:28:00.457Z,8.50
2018-01-18T15:30:29.093Z,8.40
2018-01-18T15:32:57.736Z,8.40
2018-01-18T15:35:26.283Z,8.40
2018-01-18T15:37:54.654Z,8.30
2018-01-18T15:40:23.323Z,8.30
2018-01-18T15:42:51.974Z,8.30
2018-01-18T15:45:20.416Z,8.20
2018-01-18T15:47:48.851Z,8.20
2018-01-18T15:50:17.498Z,8.20
2018-01-18T15:52:45.870Z,8.20
2018-01-18T15:55:14.246Z,8.30
2018-01-18T15:57:42.777Z,8.30
2018-01-18T16:00:11.388Z,8.30
2018-01-18T16:02:39.770Z,8.30
2018-01-18T16:05:09.078Z,8.30
2018-01-18T16:07:37.757Z,8.20
2018-01-18T16:10:06.973Z,8.20
2018-01-18T16:12:35.458Z,8.20
2018-01-18T16:15:04.021Z,8.10
2018-01-18T16:17:33.433Z,8.20
2018-01-18T16:20:01.833Z,8.20
2018-01-18T16:22:31.001Z,8.30
2018-01-18T16:24:59.389Z,8.20
2018-01-18T16:27:28.789Z,8.40
2018-01-18T16:29:57.162Z,8.40
2018-01-18T16:32:25.541Z,8.40
2018-01-18T16:34:53.905Z,8.40
2018-01-18T16:37:23.120Z,8.10
2018-01-18T16:39:51.987Z,8.10
2018-01-18T16:42:20.353Z,7.70
2018-01-18T16:44:48.721Z,7.50
2018-01-18T16:47:17.365Z,7.40
2018-01-18T16:49:46.004Z,7.40
2018-01-18T16:52:14.386Z,7.20
2018-01-18T16:54:43.024Z,7.20
2018-01-18T16:57:11.805Z,7.20
2018-01-18T16:59:40.698Z,7.20
2018-01-18T17:02:09.078Z,7.30
2018-01-18T17:04:37.726Z,7.50
2018-01-18T17:07:07.136Z,7.70
2018-01-18T17:09:35.778Z,7.70
2018-01-18T17:12:04.380Z,7.80
2018-01-18T17:14:32.746Z,7.90
2018-01-18T17:17:01.386Z,7.90
2018-01-18T17:19:29.746Z,7.90
2018-01-18T17:21:59.226Z,8.00
2018-01-18T17:24:27.509Z,8.00
2018-01-18T17:26:56.070Z,8.00
2018-01-18T17:29:24.705Z,8.00
2018-01-18T17:31:54.150Z,8.00
2018-01-18T17:34:22.520Z,8.00
2018-01-18T17:36:50.928Z,8.00
2018-01-18T17:39:20.353Z,8.20
2018-01-18T17:41:48.962Z,8.20
2018-01-18T17:44:17.589Z,8.10
2018-01-18T17:46:45.977Z,8.10
2018-01-18T17:49:15.757Z,8.10
2018-01-18T17:51:45.193Z,7.90
2018-01-18T17:54:13.913Z,7.90
2018-01-18T17:56:42.357Z,7.60
2018-01-18T17:59:11.185Z,7.40
2018-01-18T18:01:39.848Z,7.30
2018-01-18T18:04:08.212Z,7.10
2018-01-18T18:06:36.685Z,7.00
2018-01-18T18:09:04.413Z,7.00
2018-01-18T18:11:33.540Z,6.90
2018-01-18T18:14:02.003Z,6.80
2018-01-18T18:16:30.604Z,6.80
2018-01-18T18:19:00.011Z,6.80
2018-01-18T18:21:28.620Z,6.80
2018-01-18T18:23:57.268Z,6.70
2018-01-18T18:26:25.712Z,6.70
2018-01-18T18:28:54.164Z,6.60
2018-01-18T18:31:22.800Z,6.50
2018-01-18T18:33:51.166Z,6.50
2018-01-18T18:36:19.798Z,6.40
2018-01-18T18:38:48.970Z,6.30
2018-01-18T18:41:17.614Z,6.30
2018-01-18T18:43:46.250Z,6.30
2018-01-18T18:46:15.672Z,6.20
2018-01-18T18:48:44.113Z,6.20
2018-01-18T18:51:12.714Z,6.10
2018-01-18T18:53:41.093Z,6.10
2018-01-18T18:56:09.461Z,6.00
2018-01-18T18:58:37.830Z,6.00
2018-01-18T19:01:07.241Z,5.90
2018-01-18T19:03:36.645Z,5.90
2018-01-18T19:06:05.401Z,5.90
2018-01-18T19:08:34.565Z,5.80
2018-01-18T19:11:03.825Z,5.80
2018-01-18T19:13:33.215Z,5.80
2018-01-18T19:16:01.873Z,5.70
2018-01-18T19:18:31.564Z,5.70
2018-01-18T19:21:00.717Z,5.60
2018-01-18T19:23:29.329Z,5.60
2018-01-18T19:25:57.812Z,5.60
2018-01-18T19:28:26.188Z,5.50
2018-01-18T19:30:54.565Z,5.50
2018-01-18T19:33:22.913Z,5.50
2018-01-18T19:35:51.272Z,5.40
2018-01-18T19:38:19.560Z,5.40
2018-01-18T19:40:47.938Z,5.40
2018-01-18T19:43:16.434Z,5.30
2018-01-18T19:45:45.662Z,5.20
2018-01-18T19:48:14.294Z,5.20
2018-01-18T19:50:43.366Z,5.10
2018-01-18T19:53:12.511Z,5.00
2018-01-18T19:55:41.138Z,5.00
2018-01-18T19:58:10.374Z,4.70
2018-01-18T20:00:39.942Z,4.60
2018-01-18T20:03:09.288Z,4.40
2018-01-18T20:05:37.658Z,4.40
2018-01-18T20:08:06.034Z,4.20
2018-01-18T20:10:34.509Z,4.10
2018-01-18T20:13:03.437Z,3.80
2018-01-18T20:15:31.987Z,3.70
2018-01-18T20:18:00.413Z,3.60
2018-01-18T20:20:28.780Z,3.50
2018-01-18T20:22:57.093Z,3.50
2018-01-18T20:25:25.725Z,3.60
2018-01-18T20:27:54.368Z,3.50
2018-01-18T20:30:23.052Z,3.50
2018-01-18T20:32:52.273Z,3.60
2018-01-18T20:35:21.680Z,3.60
2018-01-18T20:37:51.120Z,3.60
2018-01-18T20:40:19.304Z,3.60
2018-01-18T20:42:48.435Z,3.60
2018-01-18T20:45:16.808Z,3.60
2018-01-18T20:47:45.180Z,3.70
2018-01-18T20:50:13.742Z,3.70
2018-01-18T20:52:42.450Z,3.80
2018-01-18T20:55:10.842Z,3.80
2018-01-18T20:57:39.544Z,3.80
2018-01-18T21:00:08.205Z,3.80
2018-01-18T21:02:36.606Z,3.80
2018-01-18T21:05:04.646Z,3.90
2018-01-18T21:07:33.321Z,3.90
2018-01-18T21:10:01.997Z,3.90
2018-01-18T21:12:30.483Z,3.90
2018-01-18T21:14:59.144Z,3.90
2018-01-18T21:17:27.512Z,3.90
2018-01-18T21:19:55.885Z,3.90
2018-01-18T21:22:24.540Z,3.90
2018-01-18T21:24:52.932Z,3.90
2018-01-18T21:27:21.296Z,3.90
2018-01-18T21:29:49.930Z,4.00
2018-01-18T21:32:18.556Z,4.00
2018-01-18T21:34:47.393Z,4.00
2018-01-18T21:37:15.780Z,4.00
2018-01-18T21:39:44.500Z,4.10
2018-01-18T21:42:13.133Z,4.10
2018-01-18T21:44:41.512Z,4.00
2018-01-18T21:47:10.071Z,4.20
2018-01-18T21:49:38.443Z,4.20
2018-01-18T21:52:07.648Z,4.30
2018-01-18T21:54:36.030Z,4.30
2018-01-18T21:57:05.301Z,4.30
2018-01-18T21:59:33.781Z,4.30
2018-01-18T22:02:02.305Z,4.20
2018-01-18T22:04:30.688Z,4.20
2018-01-18T22:06:59.330Z,4.20
2018-01-18T22:09:27.697Z,4.10
2018-01-18T22:11:56.337Z,4.10
2018-01-18T22:14:25.706Z,4.10
2018-01-18T22:16:54.085Z,4.10
2018-01-18T22:19:22.465Z,4.00
2018-01-18T22:21:51.055Z,4.00
2018-01-18T22:24:19.497Z,4.00
2018-01-18T22:26:47.856Z,4.00
2018-01-18T22:29:16.496Z,4.00
2018-01-18T22:31:45.868Z,3.90
2018-01-18T22:34:14.325Z,3.90
2018-01-18T22:36:42.698Z,3.90
2018-01-18T22:39:11.062Z,3.80
2018-01-18T22:41:40.192Z,3.80
2018-01-18T22:44:08.578Z,3.80
2018-01-18T22:46:36.943Z,3.80
2018-01-18T22:49:05.425Z,3.80
2018-01-18T22:51:34.075Z,3.80
2018-01-18T22:54:02.638Z,3.70
2018-01-18T22:56:31.269Z,3.70
2018-01-18T22:58:59.945Z,3.70
2018-01-18T23:01:29.369Z,3.70
2018-01-18T23:03:57.729Z,3.60
2018-01-18T23:06:26.629Z,3.70
2018-01-18T23:08:54.994Z,3.70
2018-01-18T23:11:23.596Z,3.70
2018-01-18T23:13:53.011Z,3.80
2018-01-18T23:16:21.192Z,3.80
2018-01-18T23:18:50.382Z,3.70
2018-01-18T23:21:18.968Z,3.70
2018-01-18T23:23:47.597Z,3.70
2018-01-18T23:26:16.252Z,3.80
2018-01-18T23:28:44.769Z,3.80
2018-01-18T23:31:13.216Z,3.80
2018-01-18T23:33:41.580Z,3.70
2018-01-18T23:36:10.236Z,3.70
2018-01-18T23:38:38.824Z,3.70
2018-01-18T23:41:07.338Z,3.60
2018-01-18T23:43:35.980Z,3.60
2018-01-18T23:46:04.610Z,3.60
2018-01-18T23:48:33.250Z,3.60
2018-01-18T23:51:01.288Z,3.60
2018-01-18T23:53:29.742Z,3.60
2018-01-18T23:55:58.382Z,3.50
2018-01-18T23:58:27.065Z,3.50
